createdAt,value
2019-02-19T00:00:17.263Z,85.91
2019-02-19T00:01:17.224Z,86.29
2019-02-19T00:02:17.185Z,86.47
2019-02-19T00:03:17.162Z,85.91
2019-02-19T00:04:17.120Z,86.47
2019-02-19T00:05:17.079Z,86.57
2019-02-19T00:06:17.036Z,86.19
2019-02-19T00:07:17.006Z,86.47
2019-02-19T00:08:16.978Z,86.38
2019-02-19T00:09:16.935Z,86.47
2019-02-19T00:10:16.906Z,86.19
2019-02-19T00:11:16.876Z,85.91
2019-02-19T00:12:16.836Z,86.47
2019-02-19T00:13:16.799Z,86.38
2019-02-19T00:14:16.763Z,86.76
2019-02-19T00:15:16.723Z,86.67
2019-02-19T00:16:16.688Z,86.00
2019-02-19T00:17:16.661Z,87.05
2019-02-19T00:18:16.635Z,86.38
2019-02-19T00:19:16.585Z,86.86
2019-02-19T00:20:16.556Z,86.67
2019-02-19T00:21:16.528Z,86.95
2019-02-19T00:22:16.487Z,86.38
2019-02-19T00:23:16.451Z,86.29
2019-02-19T00:24:16.417Z,86.38
2019-02-19T00:25:16.371Z,86.57
2019-02-19T00:26:16.347Z,86.19
2019-02-19T00:27:16.307Z,86.38
2019-02-19T00:28:16.277Z,86.47
2019-02-19T00:29:16.229Z,86.76
2019-02-19T00:30:16.206Z,86.29
2019-02-19T00:31:16.166Z,86.47
2019-02-19T00:32:16.130Z,86.10
2019-02-19T00:33:16.093Z,86.67
2019-02-19T00:34:16.062Z,86.38
2019-02-19T00:35:16.028Z,86.57
2019-02-19T00:36:15.997Z,86.76
2019-02-19T00:37:15.954Z,86.86
2019-02-19T00:38:15.921Z,86.38
2019-02-19T00:39:15.887Z,87.10
2019-02-19T00:40:15.849Z,86.47
2019-02-19T00:41:15.813Z,87.01
2019-02-19T00:42:15.790Z,86.95
2019-02-19T00:43:15.741Z,86.72
2019-02-19T00:44:15.710Z,86.34
2019-02-19T00:45:16.913Z,86.53
2019-02-19T00:46:15.638Z,86.34
2019-02-19T00:47:15.604Z,86.63
2019-02-19T00:48:15.563Z,86.72
2019-02-19T00:49:15.529Z,86.43
2019-02-19T00:50:15.488Z,86.67
2019-02-19T00:51:15.457Z,86.63
2019-02-19T00:52:15.471Z,86.43
2019-02-19T00:53:15.390Z,86.72
2019-02-19T00:54:15.360Z,86.63
2019-02-19T00:55:15.317Z,86.63
2019-02-19T00:56:15.303Z,86.82
2019-02-19T00:57:15.236Z,87.19
2019-02-19T00:58:15.204Z,87.10
2019-02-19T00:59:15.170Z,87.43
2019-02-19T01:00:15.154Z,86.76
2019-02-19T01:01:15.113Z,86.67
2019-02-19T01:02:15.074Z,86.67
2019-02-19T01:03:15.034Z,87.05
2019-02-19T01:04:14.999Z,87.43
2019-02-19T01:05:14.957Z,86.67
2019-02-19T01:06:14.932Z,86.95
2019-02-19T01:07:14.889Z,86.76
2019-02-19T01:08:14.875Z,86.47
2019-02-19T01:09:14.820Z,86.76
2019-02-19T01:10:14.777Z,86.86
2019-02-19T01:11:14.748Z,86.38
2019-02-19T01:12:14.719Z,86.95
2019-02-19T01:13:14.675Z,86.57
2019-02-19T01:14:14.663Z,86.67
2019-02-19T01:15:14.626Z,86.19
2019-02-19T01:16:14.579Z,87.05
2019-02-19T01:17:14.535Z,86.29
2019-02-19T01:18:14.513Z,86.67
2019-02-19T01:19:14.468Z,86.76
2019-02-19T01:20:14.430Z,86.86
2019-02-19T01:21:14.399Z,86.57
2019-02-19T01:22:14.356Z,86.57
2019-02-19T01:23:14.320Z,86.76
2019-02-19T01:24:14.289Z,86.67
2019-02-19T01:25:14.269Z,86.67
2019-02-19T01:26:14.223Z,87.43
2019-02-19T01:27:14.184Z,87.38
2019-02-19T01:28:14.153Z,87.28
2019-02-19T01:29:14.123Z,86.80
2019-02-19T01:30:14.087Z,86.52
2019-02-19T01:31:14.048Z,87.19
2019-02-19T01:32:14.006Z,86.71
2019-02-19T01:33:13.981Z,86.57
2019-02-19T01:34:13.929Z,86.76
2019-02-19T01:35:13.904Z,86.57
2019-02-19T01:36:13.864Z,86.18
2019-02-19T01:37:13.830Z,86.18
2019-02-19T01:38:13.800Z,86.47
2019-02-19T01:39:13.766Z,85.80
2019-02-19T01:40:13.720Z,86.43
2019-02-19T01:41:13.696Z,86.33
2019-02-19T01:42:13.677Z,86.24
2019-02-19T01:43:13.632Z,86.24
2019-02-19T01:44:13.596Z,86.43
2019-02-19T01:45:13.552Z,86.99
2019-02-19T01:46:13.517Z,86.43
2019-02-19T01:47:13.489Z,86.61
2019-02-19T01:48:13.444Z,86.71
2019-02-19T01:49:13.414Z,86.80
2019-02-19T01:50:13.384Z,86.43
2019-02-19T01:51:13.347Z,86.80
2019-02-19T01:52:13.307Z,86.71
2019-02-19T01:53:13.269Z,86.61
2019-02-19T01:54:13.227Z,86.71
2019-02-19T01:55:13.202Z,86.61
2019-02-19T01:56:13.175Z,86.90
2019-02-19T01:57:13.140Z,86.80
2019-02-19T01:58:13.097Z,86.71
2019-02-19T01:59:13.065Z,86.71
2019-02-19T02:00:13.030Z,86.43
2019-02-19T02:01:12.988Z,86.71
2019-02-19T02:02:12.970Z,86.80
2019-02-19T02:03:12.920Z,86.99
2019-02-19T02:04:12.882Z,87.66
2019-02-19T02:05:12.850Z,86.90
2019-02-19T02:06:12.827Z,87.09
2019-02-19T02:07:12.782Z,87.38
2019-02-19T02:08:12.748Z,87.19
2019-02-19T02:09:12.712Z,87.19
2019-02-19T02:10:12.680Z,87.38
2019-02-19T02:11:12.638Z,86.90
2019-02-19T02:12:12.608Z,86.61
2019-02-19T02:13:12.568Z,86.80
2019-02-19T02:14:12.533Z,86.90
2019-02-19T02:15:12.513Z,86.90
2019-02-19T02:16:12.466Z,86.61
2019-02-19T02:17:12.433Z,86.71
2019-02-19T02:18:12.398Z,86.61
2019-02-19T02:19:12.358Z,87.57
2019-02-19T02:20:12.328Z,86.61
2019-02-19T02:21:12.296Z,86.76
2019-02-19T02:22:12.260Z,87.32
2019-02-19T02:23:12.223Z,87.13
2019-02-19T02:24:12.186Z,86.94
2019-02-19T02:25:12.149Z,86.76
2019-02-19T02:26:12.126Z,86.94
2019-02-19T02:27:12.081Z,86.66
2019-02-19T02:28:12.058Z,86.94
2019-02-19T02:29:12.014Z,86.94
2019-02-19T02:30:11.997Z,86.28
2019-02-19T02:31:11.943Z,85.14
2019-02-19T02:32:11.909Z,85.04
2019-02-19T02:33:11.876Z,85.04
2019-02-19T02:34:11.842Z,84.47
2019-02-19T02:35:11.802Z,83.52
2019-02-19T02:36:11.763Z,83.23
2019-02-19T02:37:11.729Z,83.33
2019-02-19T02:38:11.699Z,82.67
2019-02-19T02:39:11.668Z,82.28
2019-02-19T02:40:11.625Z,82.38
2019-02-19T02:41:11.607Z,81.90
2019-02-19T02:42:11.564Z,81.81
2019-02-19T02:43:11.538Z,81.43
2019-02-19T02:44:11.501Z,81.24
2019-02-19T02:45:11.460Z,82.00
2019-02-19T02:46:11.430Z,81.52
2019-02-19T02:47:11.388Z,81.43
2019-02-19T02:48:11.381Z,81.24
2019-02-19T02:49:11.315Z,81.33
2019-02-19T02:50:11.281Z,81.05
2019-02-19T02:51:11.264Z,81.43
2019-02-19T02:52:11.224Z,81.14
2019-02-19T02:53:11.187Z,80.47
2019-02-19T02:54:11.142Z,80.00
2019-02-19T02:55:11.112Z,79.62
2019-02-19T02:56:11.075Z,79.81
2019-02-19T02:57:11.038Z,79.52
2019-02-19T02:58:11.012Z,79.33
2019-02-19T02:59:10.973Z,79.52
2019-02-19T03:00:10.949Z,79.52
2019-02-19T03:01:10.915Z,79.33
2019-02-19T03:02:10.869Z,79.62
2019-02-19T03:03:10.834Z,78.86
2019-02-19T03:04:10.816Z,79.05
2019-02-19T03:05:10.766Z,78.67
2019-02-19T03:06:10.735Z,79.05
2019-02-19T03:07:10.702Z,78.86
2019-02-19T03:08:10.665Z,79.05
2019-02-19T03:09:10.627Z,79.24
2019-02-19T03:10:10.594Z,79.43
2019-02-19T03:11:10.554Z,79.24
2019-02-19T03:12:10.534Z,79.05
2019-02-19T03:13:10.493Z,79.62
2019-02-19T03:14:10.451Z,79.05
2019-02-19T03:15:10.415Z,79.62
2019-02-19T03:16:10.385Z,79.33
2019-02-19T03:17:10.360Z,79.62
2019-02-19T03:18:10.316Z,79.72
2019-02-19T03:19:10.289Z,79.43
2019-02-19T03:20:10.254Z,78.67
2019-02-19T03:21:10.205Z,79.14
2019-02-19T03:22:10.188Z,78.67
2019-02-19T03:23:10.135Z,79.05
2019-02-19T03:24:10.110Z,79.33
2019-02-19T03:25:10.070Z,79.14
2019-02-19T03:26:10.040Z,79.24
2019-02-19T03:27:10.038Z,79.14
2019-02-19T03:28:09.989Z,79.52
2019-02-19T03:29:09.941Z,79.24
2019-02-19T03:30:09.906Z,79.14
2019-02-19T03:31:09.878Z,79.33
2019-02-19T03:32:09.883Z,79.14
2019-02-19T03:33:09.811Z,79.05
2019-02-19T03:34:09.824Z,79.24
2019-02-19T03:35:09.736Z,79.05
2019-02-19T03:36:09.694Z,78.77
2019-02-19T03:37:09.662Z,79.05
2019-02-19T03:38:09.637Z,78.67
2019-02-19T03:39:09.599Z,78.77
2019-02-19T03:40:09.558Z,79.14
2019-02-19T03:41:09.529Z,78.48
2019-02-19T03:42:09.497Z,78.10
2019-02-19T03:43:09.461Z,78.57
2019-02-19T03:44:09.439Z,78.57
2019-02-19T03:45:09.394Z,78.67
2019-02-19T03:46:12.074Z,78.38
2019-02-19T03:47:09.327Z,78.29
2019-02-19T03:48:09.293Z,78.10
2019-02-19T03:49:09.262Z,77.91
2019-02-19T03:50:09.234Z,78.19
2019-02-19T03:51:09.193Z,78.00
2019-02-19T03:52:09.148Z,77.72
2019-02-19T03:53:09.105Z,77.91
2019-02-19T03:54:09.088Z,77.81
2019-02-19T03:55:09.049Z,77.91
2019-02-19T03:56:09.011Z,76.86
2019-02-19T03:57:08.971Z,77.05
2019-02-19T03:58:08.936Z,76.01
2019-02-19T03:59:08.911Z,76.39
2019-02-19T04:00:08.877Z,76.39
2019-02-19T04:01:08.832Z,76.48
2019-02-19T04:02:08.801Z,75.49
2019-02-19T04:03:08.768Z,74.58
2019-02-19T04:04:08.727Z,74.58
2019-02-19T04:05:08.693Z,73.91
2019-02-19T04:06:08.668Z,74.58
2019-02-19T04:07:08.623Z,74.01
2019-02-19T04:08:08.597Z,73.63
2019-02-19T04:09:08.571Z,73.63
2019-02-19T04:10:08.527Z,72.83
2019-02-19T04:11:08.489Z,72.64
2019-02-19T04:12:08.459Z,72.96
2019-02-19T04:13:08.418Z,72.86
2019-02-19T04:14:08.388Z,72.86
2019-02-19T04:15:08.357Z,72.45
2019-02-19T04:16:08.323Z,72.26
2019-02-19T04:17:08.288Z,72.07
2019-02-19T04:18:08.253Z,72.20
2019-02-19T04:19:08.213Z,72.45
2019-02-19T04:20:08.187Z,71.69
2019-02-19T04:21:08.143Z,71.02
2019-02-19T04:22:08.116Z,70.54
2019-02-19T04:23:08.083Z,70.17
2019-02-19T04:24:08.048Z,70.17
2019-02-19T04:25:08.013Z,69.41
2019-02-19T04:26:07.977Z,68.55
2019-02-19T04:27:07.950Z,68.74
2019-02-19T04:28:07.904Z,68.46
2019-02-19T04:29:07.867Z,68.27
2019-02-19T04:30:07.838Z,67.69
2019-02-19T04:31:07.801Z,67.69
2019-02-19T04:32:07.761Z,67.32
2019-02-19T04:33:07.750Z,67.13
2019-02-19T04:34:07.687Z,67.41
2019-02-19T04:35:07.657Z,66.84
2019-02-19T04:36:07.632Z,66.46
2019-02-19T04:37:07.590Z,67.22
2019-02-19T04:38:07.553Z,66.46
2019-02-19T04:39:07.532Z,65.89
2019-02-19T04:40:07.498Z,64.94
2019-02-19T04:41:07.448Z,64.46
2019-02-19T04:42:07.427Z,64.84
2019-02-19T04:43:07.379Z,64.46
2019-02-19T04:44:07.358Z,63.89
2019-02-19T04:45:07.345Z,64.18
2019-02-19T04:46:07.278Z,64.08
2019-02-19T04:47:07.252Z,63.42
2019-02-19T04:48:07.210Z,63.13
2019-02-19T04:49:07.184Z,63.04
2019-02-19T04:50:07.361Z,62.56
2019-02-19T04:51:07.103Z,62.37
2019-02-19T04:52:07.068Z,61.52
2019-02-19T04:53:07.033Z,61.52
2019-02-19T04:54:06.998Z,61.04
2019-02-19T04:55:06.963Z,61.04
2019-02-19T04:56:06.933Z,60.94
2019-02-19T04:57:06.913Z,60.28
2019-02-19T04:58:06.857Z,60.38
2019-02-19T04:59:06.814Z,60.18
2019-02-19T05:00:06.789Z,60.47
2019-02-19T05:01:06.756Z,59.99
2019-02-19T05:02:06.721Z,59.52
2019-02-19T05:03:06.684Z,59.05
2019-02-19T05:04:06.651Z,58.63
2019-02-19T05:05:06.619Z,58.06
2019-02-19T05:06:06.586Z,58.35
2019-02-19T05:07:06.543Z,57.87
2019-02-19T05:08:06.513Z,57.68
2019-02-19T05:09:06.482Z,57.68
2019-02-19T05:10:06.447Z,56.73
2019-02-19T05:11:06.405Z,56.45
2019-02-19T05:12:06.370Z,56.35
2019-02-19T05:13:06.330Z,56.35
2019-02-19T05:14:06.296Z,55.88
2019-02-19T05:15:06.269Z,56.16
2019-02-19T05:16:06.229Z,56.16
2019-02-19T05:17:06.200Z,56.45
2019-02-19T05:18:06.171Z,56.07
2019-02-19T05:19:06.115Z,56.67
2019-02-19T05:20:06.092Z,57.02
2019-02-19T05:21:06.054Z,56.54
2019-02-19T05:22:06.026Z,56.16
2019-02-19T05:23:07.507Z,56.16
2019-02-19T05:24:05.979Z,55.21
2019-02-19T05:25:05.909Z,55.11
2019-02-19T05:26:05.876Z,55.81
2019-02-19T05:27:05.841Z,56.16
2019-02-19T05:28:05.806Z,55.50
2019-02-19T05:29:05.783Z,55.21
2019-02-19T05:30:05.747Z,56.16
2019-02-19T05:31:05.704Z,55.50
2019-02-19T05:32:05.669Z,55.11
2019-02-19T05:33:05.637Z,56.29
2019-02-19T05:34:05.596Z,56.76
2019-02-19T05:35:05.572Z,56.85
2019-02-19T05:36:05.530Z,57.14
2019-02-19T05:37:05.486Z,57.14
2019-02-19T05:38:05.456Z,57.71
2019-02-19T05:39:05.417Z,57.81
2019-02-19T05:40:05.395Z,58.25
2019-02-19T05:41:05.357Z,58.63
2019-02-19T05:42:05.317Z,58.54
2019-02-19T05:43:05.311Z,59.39
2019-02-19T05:44:05.242Z,59.11
2019-02-19T05:45:05.218Z,59.20
2019-02-19T05:46:05.177Z,58.35
2019-02-19T05:47:05.143Z,59.39
2019-02-19T05:48:05.376Z,59.49
2019-02-19T05:49:05.058Z,59.52
2019-02-19T05:50:05.038Z,59.87
2019-02-19T05:51:05.006Z,59.68
2019-02-19T05:52:04.966Z,60.57
2019-02-19T05:53:04.926Z,60.47
2019-02-19T05:54:04.895Z,60.75
2019-02-19T05:55:04.863Z,60.38
2019-02-19T05:56:04.821Z,61.13
2019-02-19T05:57:04.792Z,61.13
2019-02-19T05:58:04.773Z,60.75
2019-02-19T05:59:04.723Z,61.04
2019-02-19T06:00:04.691Z,60.94
2019-02-19T06:01:04.647Z,61.32
2019-02-19T06:02:04.606Z,61.04
2019-02-19T06:03:04.576Z,61.04
2019-02-19T06:04:04.548Z,61.42
2019-02-19T06:05:05.885Z,62.24
2019-02-19T06:06:04.472Z,62.08
2019-02-19T06:07:04.442Z,62.18
2019-02-19T06:08:04.411Z,61.96
2019-02-19T06:09:04.374Z,62.37
2019-02-19T06:10:04.338Z,62.53
2019-02-19T06:11:04.306Z,62.18
2019-02-19T06:12:04.274Z,62.46
2019-02-19T06:13:04.235Z,63.04
2019-02-19T06:14:04.196Z,62.75
2019-02-19T06:15:04.157Z,63.23
2019-02-19T06:16:04.135Z,63.04
2019-02-19T06:17:04.076Z,63.51
2019-02-19T06:18:04.048Z,63.48
2019-02-19T06:19:04.025Z,63.95
2019-02-19T06:20:03.990Z,63.23
2019-02-19T06:21:03.952Z,63.51
2019-02-19T06:22:03.918Z,64.18
2019-02-19T06:23:03.920Z,63.99
2019-02-19T06:24:03.842Z,64.94
2019-02-19T06:25:03.809Z,64.46
2019-02-19T06:26:03.778Z,64.94
2019-02-19T06:27:03.747Z,65.22
2019-02-19T06:28:03.715Z,65.99
2019-02-19T06:29:03.663Z,64.65
2019-02-19T06:30:03.628Z,64.72
2019-02-19T06:31:03.597Z,65.41
2019-02-19T06:32:03.552Z,65.70
2019-02-19T06:33:03.519Z,64.84
2019-02-19T06:34:03.492Z,65.00
2019-02-19T06:35:03.450Z,64.24
2019-02-19T06:36:03.428Z,64.46
2019-02-19T06:37:03.386Z,65.22
2019-02-19T06:38:03.371Z,65.41
2019-02-19T06:39:03.318Z,64.62
2019-02-19T06:40:03.289Z,64.72
2019-02-19T06:41:03.251Z,64.05
2019-02-19T06:42:03.208Z,64.24
2019-02-19T06:43:03.204Z,63.86
2019-02-19T06:44:03.129Z,64.24
2019-02-19T06:45:03.103Z,64.34
2019-02-19T06:46:03.075Z,64.46
2019-02-19T06:47:06.930Z,64.62
2019-02-19T06:48:03.010Z,64.62
2019-02-19T06:49:02.960Z,64.62
2019-02-19T06:50:02.932Z,64.14
2019-02-19T06:51:02.928Z,63.95
2019-02-19T06:52:02.855Z,64.53
2019-02-19T06:53:02.832Z,64.34
2019-02-19T06:54:02.779Z,64.90
2019-02-19T06:55:02.755Z,65.47
2019-02-19T06:56:02.719Z,64.84
2019-02-19T06:57:02.673Z,65.41
2019-02-19T06:58:02.646Z,65.89
2019-02-19T06:59:02.619Z,65.60
2019-02-19T07:00:02.565Z,66.27
2019-02-19T07:01:02.544Z,66.36
2019-02-19T07:02:02.501Z,66.84
2019-02-19T07:03:02.490Z,67.41
2019-02-19T07:04:02.450Z,66.94
2019-02-19T07:05:02.408Z,67.32
2019-02-19T07:06:02.357Z,66.05
2019-02-19T07:07:02.331Z,65.86
2019-02-19T07:08:02.292Z,65.80
2019-02-19T07:09:02.255Z,66.84
2019-02-19T07:10:02.226Z,66.71
2019-02-19T07:11:02.207Z,66.05
2019-02-19T07:12:02.151Z,66.46
2019-02-19T07:13:02.120Z,67.13
2019-02-19T07:14:02.081Z,66.27
2019-02-19T07:15:02.057Z,66.27
2019-02-19T07:16:02.006Z,67.13
2019-02-19T07:17:01.974Z,67.19
2019-02-19T07:18:01.950Z,67.69
2019-02-19T07:19:01.906Z,67.32
2019-02-19T07:20:01.875Z,66.74
2019-02-19T07:21:01.846Z,67.41
2019-02-19T07:22:01.806Z,67.22
2019-02-19T07:23:01.780Z,67.98
2019-02-19T07:24:04.500Z,67.69
2019-02-19T07:25:01.695Z,68.17
2019-02-19T07:26:01.665Z,67.60
2019-02-19T07:27:01.628Z,67.79
2019-02-19T07:28:01.594Z,67.69
2019-02-19T07:29:01.562Z,67.79
2019-02-19T07:30:01.526Z,68.36
2019-02-19T07:31:01.483Z,68.55
2019-02-19T07:32:01.460Z,68.46
2019-02-19T07:33:01.412Z,68.74
2019-02-19T07:34:01.377Z,68.74
2019-02-19T07:35:01.354Z,68.46
2019-02-19T07:36:01.322Z,68.17
2019-02-19T07:37:01.285Z,68.27
2019-02-19T07:38:01.237Z,68.74
2019-02-19T07:39:01.211Z,69.21
2019-02-19T07:40:01.171Z,69.12
2019-02-19T07:41:01.133Z,69.12
2019-02-19T07:42:01.108Z,69.50
2019-02-19T07:43:01.062Z,69.69
2019-02-19T07:44:01.026Z,70.17
2019-02-19T07:45:01.004Z,70.17
2019-02-19T07:46:00.978Z,71.41
2019-02-19T07:47:00.930Z,70.54
2019-02-19T07:48:00.891Z,70.64
2019-02-19T07:49:00.868Z,71.97
2019-02-19T07:50:00.827Z,71.41
2019-02-19T07:51:00.786Z,71.50
2019-02-19T07:52:00.757Z,71.31
2019-02-19T07:53:00.725Z,71.53
2019-02-19T07:54:00.687Z,71.88
2019-02-19T07:55:00.659Z,71.97
2019-02-19T07:56:00.614Z,71.69
2019-02-19T07:57:00.583Z,71.50
2019-02-19T07:58:00.553Z,71.50
2019-02-19T07:59:00.535Z,71.22
2019-02-19T08:00:00.483Z,72.01
2019-02-19T08:01:00.438Z,71.78
2019-02-19T08:02:00.405Z,71.97
2019-02-19T08:03:00.374Z,72.01
2019-02-19T08:04:00.341Z,71.82
2019-02-19T08:05:00.330Z,70.77
2019-02-19T08:06:00.273Z,71.12
2019-02-19T08:07:00.241Z,71.72
2019-02-19T08:08:00.203Z,72.01
2019-02-19T08:09:00.169Z,71.63
2019-02-19T08:10:00.207Z,72.30
2019-02-19T08:11:00.093Z,71.72
2019-02-19T08:12:00.065Z,71.72
2019-02-19T08:13:00.036Z,71.82
2019-02-19T08:13:59.988Z,72.11
2019-02-19T08:14:59.957Z,71.72
2019-02-19T08:15:59.928Z,72.58
2019-02-19T08:16:59.893Z,71.82
2019-02-19T08:17:59.856Z,71.72
2019-02-19T08:18:59.819Z,72.20
2019-02-19T08:19:59.807Z,71.91
2019-02-19T08:20:59.745Z,72.20
2019-02-19T08:21:59.714Z,71.91
2019-02-19T08:22:59.678Z,71.44
2019-02-19T08:23:59.649Z,71.72
2019-02-19T08:24:59.600Z,71.15
2019-02-19T08:25:59.578Z,71.06
2019-02-19T08:26:59.534Z,71.15
2019-02-19T08:27:59.505Z,71.25
2019-02-19T08:29:11.411Z,71.06
2019-02-19T08:29:59.438Z,71.91
2019-02-19T08:30:59.403Z,71.44
2019-02-19T08:31:59.369Z,71.82
2019-02-19T08:32:59.330Z,72.49
2019-02-19T08:33:59.305Z,71.82
2019-02-19T08:34:59.261Z,71.91
2019-02-19T08:35:59.229Z,71.63
2019-02-19T08:36:59.194Z,72.49
2019-02-19T08:37:59.160Z,71.53
2019-02-19T08:38:59.125Z,71.15
2019-02-19T08:39:59.106Z,71.34
2019-02-19T08:40:59.058Z,70.87
2019-02-19T08:41:59.030Z,71.06
2019-02-19T08:42:58.990Z,71.44
2019-02-19T08:43:58.954Z,71.72
2019-02-19T08:44:58.924Z,71.44
2019-02-19T08:45:58.895Z,71.53
2019-02-19T08:46:58.846Z,71.63
2019-02-19T08:47:58.814Z,71.91
2019-02-19T08:48:58.780Z,72.01
2019-02-19T08:49:58.743Z,72.01
2019-02-19T08:50:58.715Z,72.58
2019-02-19T08:51:58.683Z,72.49
2019-02-19T08:52:58.644Z,72.30
2019-02-19T08:53:58.610Z,71.82
2019-02-19T08:54:58.582Z,72.49
2019-02-19T08:55:58.553Z,72.49
2019-02-19T08:56:58.513Z,72.96
2019-02-19T08:57:58.472Z,73.25
2019-02-19T08:58:58.434Z,72.30
2019-02-19T08:59:58.408Z,72.58
2019-02-19T09:00:58.374Z,73.53
2019-02-19T09:01:58.341Z,73.15
2019-02-19T09:02:58.315Z,73.15
2019-02-19T09:03:58.308Z,73.53
2019-02-19T09:04:58.227Z,73.34
2019-02-19T09:05:58.205Z,73.25
2019-02-19T09:06:58.161Z,74.39
2019-02-19T09:07:58.136Z,73.34
2019-02-19T09:08:58.190Z,73.25
2019-02-19T09:09:58.065Z,73.44
2019-02-19T09:10:58.020Z,73.25
2019-02-19T09:11:57.976Z,73.34
2019-02-19T09:12:57.987Z,73.72
2019-02-19T09:13:57.930Z,72.77
2019-02-19T09:14:57.882Z,73.06
2019-02-19T09:15:57.855Z,73.15
2019-02-19T09:16:57.827Z,74.48
2019-02-19T09:17:57.785Z,73.44
2019-02-19T09:18:57.751Z,74.20
2019-02-19T09:19:59.535Z,73.25
2019-02-19T09:20:57.717Z,73.44
2019-02-19T09:21:57.657Z,74.20
2019-02-19T09:22:57.618Z,73.53
2019-02-19T09:23:58.522Z,73.53
2019-02-19T09:24:57.543Z,74.87
2019-02-19T09:25:57.510Z,72.30
2019-02-19T09:26:57.481Z,73.72
2019-02-19T09:27:57.444Z,74.01
2019-02-19T09:28:57.406Z,74.62
2019-02-19T09:29:57.413Z,74.04
2019-02-19T09:30:57.345Z,74.04
2019-02-19T09:31:57.302Z,77.95
2019-02-19T09:32:57.267Z,79.47
2019-02-19T09:33:57.266Z,78.61
2019-02-19T09:34:57.206Z,81.28
2019-02-19T09:35:57.181Z,79.94
2019-02-19T09:36:57.157Z,81.85
2019-02-19T09:37:57.119Z,83.18
2019-02-19T09:38:57.064Z,83.09
2019-02-19T09:39:57.034Z,80.71
2019-02-19T09:40:56.991Z,81.47
2019-02-19T09:41:56.956Z,83.18
2019-02-19T09:42:56.928Z,83.94
2019-02-19T09:43:56.894Z,82.80
2019-02-19T09:44:56.849Z,83.85
2019-02-19T09:45:58.887Z,83.56
2019-02-19T09:46:56.789Z,81.85
2019-02-19T09:48:01.141Z,82.90
2019-02-19T09:48:56.728Z,84.04
2019-02-19T09:49:56.673Z,83.28
2019-02-19T09:50:56.653Z,84.13
2019-02-19T09:51:56.652Z,83.65
2019-02-19T09:53:00.026Z,82.75
2019-02-19T09:53:56.547Z,84.04
2019-02-19T09:54:56.513Z,83.98
2019-02-19T09:55:56.479Z,84.08
2019-02-19T09:56:56.438Z,83.13
2019-02-19T09:57:56.419Z,83.89
2019-02-19T09:58:56.392Z,84.17
2019-02-19T09:59:56.348Z,83.98
2019-02-19T10:00:56.313Z,85.13
2019-02-19T10:01:56.284Z,87.27
2019-02-19T10:02:56.252Z,86.22
2019-02-19T10:03:56.213Z,88.45
2019-02-19T10:04:56.179Z,90.12
2019-02-19T10:05:56.145Z,88.35
2019-02-19T10:06:56.130Z,87.49
2019-02-19T10:07:56.089Z,87.54
2019-02-19T10:08:56.047Z,85.91
2019-02-19T10:09:56.018Z,84.29
2019-02-19T10:10:56.023Z,84.20
2019-02-19T10:11:55.970Z,83.05
2019-02-19T10:12:55.935Z,80.61
2019-02-19T10:13:55.898Z,79.65
2019-02-19T10:14:55.889Z,77.15
2019-02-19T10:15:55.860Z,70.94
2019-02-19T10:16:55.823Z,70.36
2019-02-19T10:17:55.801Z,66.99
2019-02-19T10:18:55.773Z,68.61
2019-02-19T10:19:55.742Z,65.20
2019-02-19T10:20:55.719Z,63.99
2019-02-19T10:21:55.685Z,63.19
2019-02-19T10:22:55.659Z,63.16
2019-02-19T10:23:55.653Z,62.33
2019-02-19T10:24:55.618Z,60.74
2019-02-19T10:25:55.597Z,61.69
2019-02-19T10:26:55.572Z,62.37
2019-02-19T10:27:55.538Z,60.55
2019-02-19T10:28:55.515Z,59.94
2019-02-19T10:29:55.494Z,60.52
2019-02-19T10:30:55.471Z,61.57
2019-02-19T10:31:55.434Z,61.06
2019-02-19T10:32:55.414Z,61.28
2019-02-19T10:33:55.381Z,59.75
2019-02-19T10:34:55.365Z,59.69
2019-02-19T10:35:55.345Z,57.70
2019-02-19T10:36:55.319Z,55.63
2019-02-19T10:37:55.299Z,54.91
2019-02-19T10:38:55.265Z,52.59
2019-02-19T10:39:55.255Z,52.14
2019-02-19T10:40:55.214Z,53.71
2019-02-19T10:41:55.221Z,54.38
2019-02-19T10:42:55.166Z,53.83
2019-02-19T10:43:55.139Z,53.33
2019-02-19T10:44:55.112Z,53.42
2019-02-19T10:45:55.100Z,52.97
2019-02-19T10:46:55.085Z,52.50
2019-02-19T10:47:55.054Z,53.78
2019-02-19T10:48:55.027Z,55.05
2019-02-19T10:49:55.000Z,53.23
2019-02-19T10:50:54.970Z,53.81
2019-02-19T10:51:54.952Z,54.16
2019-02-19T10:52:54.927Z,54.19
2019-02-19T10:53:54.902Z,52.75
2019-02-19T10:54:54.879Z,52.04
2019-02-19T10:55:54.852Z,51.92
2019-02-19T10:56:54.826Z,51.99
2019-02-19T10:57:54.790Z,52.56
2019-02-19T10:58:54.778Z,52.20
2019-02-19T10:59:54.761Z,52.69
2019-02-19T11:00:54.737Z,52.59
2019-02-19T11:01:54.702Z,52.30
2019-02-19T11:02:54.677Z,51.97
2019-02-19T11:03:54.661Z,53.26
2019-02-19T11:04:54.642Z,51.92
2019-02-19T11:05:54.613Z,51.46
2019-02-19T11:06:54.577Z,49.36
2019-02-19T11:07:54.560Z,50.00
2019-02-19T11:08:54.537Z,50.00
2019-02-19T11:09:54.532Z,50.17
2019-02-19T11:10:54.485Z,51.03
2019-02-19T11:11:54.471Z,50.96
2019-02-19T11:12:54.442Z,50.03
2019-02-19T11:13:54.427Z,50.58
2019-02-19T11:14:54.395Z,50.67
2019-02-19T11:15:54.367Z,51.73
2019-02-19T11:16:54.350Z,51.22
2019-02-19T11:17:54.347Z,52.37
2019-02-19T11:18:54.297Z,51.13
2019-02-19T11:19:54.306Z,51.22
2019-02-19T11:20:54.282Z,51.28
2019-02-19T11:21:54.223Z,49.69
2019-02-19T11:22:54.248Z,50.67
2019-02-19T11:23:54.177Z,50.12
2019-02-19T11:24:54.183Z,49.36
2019-02-19T11:25:54.124Z,49.62
2019-02-19T11:26:54.112Z,50.20
2019-02-19T11:27:54.085Z,49.88
2019-02-19T11:28:54.062Z,50.10
2019-02-19T11:29:54.051Z,50.38
2019-02-19T11:30:54.001Z,50.10
2019-02-19T11:31:54.019Z,50.03
2019-02-19T11:32:53.962Z,49.76
2019-02-19T11:33:53.941Z,48.52
2019-02-19T11:34:53.912Z,47.08
2019-02-19T11:35:54.849Z,48.09
2019-02-19T11:36:53.869Z,48.04
2019-02-19T11:37:53.846Z,47.17
2019-02-19T11:38:53.836Z,47.99
2019-02-19T11:39:53.792Z,48.47
2019-02-19T11:40:53.792Z,48.52
2019-02-19T11:41:53.755Z,47.89
2019-02-19T11:42:53.722Z,46.55
2019-02-19T11:43:53.696Z,46.24
2019-02-19T11:44:53.682Z,46.75
2019-02-19T11:45:53.654Z,48.93
2019-02-19T11:46:53.642Z,49.52
2019-02-19T11:47:53.618Z,48.38
2019-02-19T11:48:53.587Z,48.59
2019-02-19T11:49:53.553Z,48.43
2019-02-19T11:50:53.540Z,47.92
2019-02-19T11:51:53.508Z,47.25
2019-02-19T11:52:53.494Z,48.11
2019-02-19T11:53:53.460Z,46.86
2019-02-19T11:54:53.442Z,46.58
2019-02-19T11:55:53.417Z,45.72
2019-02-19T11:56:53.390Z,46.12
2019-02-19T11:57:53.358Z,45.47
2019-02-19T11:58:53.337Z,44.51
2019-02-19T11:59:53.341Z,45.07
2019-02-19T12:00:53.284Z,45.64
2019-02-19T12:01:53.267Z,46.39
2019-02-19T12:02:53.245Z,46.34
2019-02-19T12:03:53.220Z,45.18
2019-02-19T12:04:53.190Z,45.33
2019-02-19T12:05:53.171Z,46.84
2019-02-19T12:06:53.147Z,46.29
2019-02-19T12:07:53.123Z,46.39
2019-02-19T12:08:53.103Z,47.22
2019-02-19T12:09:53.105Z,47.22
2019-02-19T12:10:53.057Z,47.03
2019-02-19T12:11:53.025Z,46.55
2019-02-19T12:12:53.001Z,47.13
2019-02-19T12:13:52.975Z,47.25
2019-02-19T12:14:52.948Z,46.67
2019-02-19T12:15:52.941Z,47.08
2019-02-19T12:16:52.898Z,46.67
2019-02-19T12:17:52.874Z,47.42
2019-02-19T12:18:52.863Z,48.25
2019-02-19T12:19:52.836Z,48.95
2019-02-19T12:20:52.800Z,48.09
2019-02-19T12:21:52.787Z,48.54
2019-02-19T12:22:52.760Z,48.07
2019-02-19T12:23:52.758Z,48.49
2019-02-19T12:24:52.724Z,49.57
2019-02-19T12:25:52.675Z,49.64
2019-02-19T12:26:52.666Z,49.26
2019-02-19T12:27:52.649Z,50.12
2019-02-19T12:28:52.609Z,50.98
2019-02-19T12:29:52.569Z,51.07
2019-02-19T12:30:52.546Z,50.86
2019-02-19T12:31:52.525Z,50.67
2019-02-19T12:32:52.493Z,51.27
2019-02-19T12:33:52.464Z,50.98
2019-02-19T12:34:52.447Z,50.70
2019-02-19T12:35:52.409Z,51.24
2019-02-19T12:36:52.394Z,52.36
2019-02-19T12:37:52.357Z,52.29
2019-02-19T12:38:52.334Z,52.75
2019-02-19T12:39:52.311Z,53.89
2019-02-19T12:40:52.286Z,54.02
2019-02-19T12:41:52.251Z,54.02
2019-02-19T12:42:52.224Z,53.34
2019-02-19T12:43:52.202Z,53.61
2019-02-19T12:44:52.164Z,54.56
2019-02-19T12:45:52.137Z,54.66
2019-02-19T12:46:52.107Z,54.56
2019-02-19T12:47:52.081Z,55.90
2019-02-19T12:48:54.711Z,56.06
2019-02-19T12:49:52.017Z,57.40
2019-02-19T12:50:51.991Z,57.71
2019-02-19T12:51:51.967Z,55.35